createdAt,value
2023-05-20T00:00:18.000Z,0.00
2023-05-20T00:00:49.000Z,0.00
2023-05-20T00:01:27.000Z,0.00
2023-05-20T00:02:07.000Z,0.00
2023-05-20T00:02:29.000Z,0.00
2023-05-20T00:02:57.000Z,0.00
2023-05-20T00:03:13.000Z,0.00
2023-05-20T00:03:32.000Z,0.00
2023-05-20T00:03:57.000Z,0.00
2023-05-20T00:04:23.000Z,0.00
2023-05-20T00:04:49.000Z,0.00
2023-05-20T00:05:27.000Z,0.00
2023-05-20T00:06:07.000Z,0.00
2023-05-20T00:06:37.000Z,0.00
2023-05-20T00:07:03.000Z,0.00
2023-05-20T00:07:34.000Z,0.00
2023-05-20T00:07:57.000Z,0.00
2023-05-20T00:08:23.000Z,0.00
2023-05-20T00:08:49.000Z,0.00
2023-05-20T00:09:17.000Z,0.00
2023-05-20T00:09:42.000Z,0.00
2023-05-20T00:10:12.000Z,0.00
2023-05-20T00:10:42.000Z,0.00
2023-05-20T00:11:17.000Z,0.00
2023-05-20T00:11:47.000Z,0.00
2023-05-20T00:12:17.000Z,0.00
2023-05-20T00:12:37.000Z,0.00
2023-05-20T00:12:59.000Z,0.00
2023-05-20T00:13:22.000Z,0.00
2023-05-20T00:13:57.000Z,0.00
2023-05-20T00:14:27.000Z,0.00
2023-05-20T00:15:02.000Z,0.00
2023-05-20T00:15:32.000Z,0.00
2023-05-20T00:16:02.000Z,0.00
2023-05-20T00:16:37.000Z,0.00
2023-05-20T00:16:59.000Z,0.00
2023-05-20T00:17:22.000Z,0.00
2023-05-20T00:17:57.000Z,0.00
2023-05-20T00:18:27.000Z,0.00
2023-05-20T00:19:02.000Z,0.00
2023-05-20T00:19:32.000Z,0.00
2023-05-20T00:20:02.000Z,0.00
2023-05-20T00:20:37.000Z,0.00
2023-05-20T00:20:58.000Z,0.00
2023-05-20T00:21:22.000Z,0.00
2023-05-20T00:21:57.000Z,0.00
2023-05-20T00:22:25.000Z,0.00
2023-05-20T00:22:52.000Z,0.00
2023-05-20T00:23:26.000Z,0.00
2023-05-20T00:23:47.000Z,0.00
2023-05-20T00:24:17.000Z,0.00
2023-05-20T00:24:37.000Z,0.00
2023-05-20T00:24:58.000Z,0.00
2023-05-20T00:25:22.000Z,0.00
2023-05-20T00:25:57.000Z,0.00
2023-05-20T00:26:27.000Z,0.00
2023-05-20T00:27:02.000Z,0.00
2023-05-20T00:27:32.000Z,0.00
2023-05-20T00:28:02.000Z,0.00
2023-05-20T00:28:37.000Z,0.00
2023-05-20T00:28:59.000Z,0.00
2023-05-20T00:29:22.000Z,0.00
2023-05-20T00:29:57.000Z,0.00
2023-05-20T00:30:27.000Z,0.00
2023-05-20T00:31:02.000Z,0.00
2023-05-20T00:31:32.000Z,0.00
2023-05-20T00:32:02.000Z,0.00
2023-05-20T00:32:37.000Z,0.00
2023-05-20T00:32:58.000Z,0.00
2023-05-20T00:33:22.000Z,0.00
2023-05-20T00:33:57.000Z,0.00
2023-05-20T00:34:27.000Z,0.00
2023-05-20T00:35:12.000Z,0.00
2023-05-20T00:35:47.000Z,0.00
2023-05-20T00:36:17.000Z,0.00
2023-05-20T00:36:37.000Z,0.00
2023-05-20T00:36:59.000Z,0.00
2023-05-20T00:37:22.000Z,0.00
2023-05-20T00:37:57.000Z,0.00
2023-05-20T00:38:27.000Z,0.00
2023-05-20T00:39:02.000Z,0.00
2023-05-20T00:39:32.000Z,0.00
2023-05-20T00:40:02.000Z,0.00
2023-05-20T00:40:37.000Z,0.00
2023-05-20T00:41:08.000Z,0.00
2023-05-20T00:41:42.000Z,0.00
2023-05-20T00:41:59.000Z,0.00
2023-05-20T00:42:25.000Z,0.00
2023-05-20T00:42:52.000Z,0.00
2023-05-20T00:43:16.000Z,0.00
2023-05-20T00:43:47.000Z,0.00
2023-05-20T00:44:02.000Z,0.00
2023-05-20T00:44:37.000Z,0.00
2023-05-20T00:44:59.000Z,0.00
2023-05-20T00:45:23.000Z,0.00
2023-05-20T00:45:57.000Z,0.00
2023-05-20T00:46:27.000Z,0.00
2023-05-20T00:47:02.000Z,0.00
2023-05-20T00:47:32.000Z,0.00
2023-05-20T00:48:02.000Z,0.00
2023-05-20T00:48:37.000Z,0.00
2023-05-20T00:49:02.000Z,0.00
2023-05-20T00:49:22.000Z,0.00
2023-05-20T00:49:57.000Z,0.00
2023-05-20T00:50:27.000Z,0.00
2023-05-20T00:51:02.000Z,0.00
2023-05-20T00:51:32.000Z,0.00
2023-05-20T00:52:02.000Z,0.00
2023-05-20T00:52:37.000Z,0.00
2023-05-20T00:52:58.000Z,0.00
2023-05-20T00:53:22.000Z,0.00
2023-05-20T00:53:42.000Z,0.00
2023-05-20T00:54:12.000Z,0.00
2023-05-20T00:54:52.000Z,0.00
2023-05-20T00:55:26.000Z,0.00
2023-05-20T00:55:49.000Z,0.00
2023-05-20T00:56:12.000Z,0.00
2023-05-20T00:56:37.000Z,0.00
2023-05-20T00:56:58.000Z,0.00
2023-05-20T00:57:22.000Z,0.00
2023-05-20T00:57:42.000Z,0.00
2023-05-20T00:58:12.000Z,0.00
2023-05-20T00:58:42.000Z,0.00
2023-05-20T00:59:16.000Z,0.00
2023-05-20T00:59:47.000Z,0.00
2023-05-20T01:00:17.000Z,0.00
2023-05-20T01:00:37.000Z,0.00
2023-05-20T01:00:59.000Z,0.00
2023-05-20T01:01:22.000Z,0.00
2023-05-20T01:01:52.000Z,0.00
2023-05-20T01:02:18.000Z,0.00
2023-05-20T01:02:43.000Z,0.00
2023-05-20T01:03:12.000Z,0.00
2023-05-20T01:03:35.000Z,0.00
2023-05-20T01:04:02.000Z,0.00
2023-05-20T01:04:17.000Z,0.00
2023-05-20T01:04:37.000Z,0.00
2023-05-20T01:04:59.000Z,0.00
2023-05-20T01:05:22.000Z,0.00
2023-05-20T01:05:42.000Z,0.00
2023-05-20T01:06:12.000Z,0.00
2023-05-20T01:06:42.000Z,0.00
2023-05-20T01:07:17.000Z,0.00
2023-05-20T01:07:47.000Z,0.00
2023-05-20T01:08:17.000Z,0.00
2023-05-20T01:08:37.000Z,0.00
2023-05-20T01:08:59.000Z,0.00
2023-05-20T01:09:23.000Z,0.00
2023-05-20T01:09:53.000Z,0.00
2023-05-20T01:10:18.000Z,0.00
2023-05-20T01:10:43.000Z,0.00
2023-05-20T01:11:12.000Z,0.00
2023-05-20T01:11:34.000Z,0.00
2023-05-20T01:12:02.000Z,0.00
2023-05-20T01:12:37.000Z,0.00
2023-05-20T01:13:00.000Z,0.00
2023-05-20T01:13:27.000Z,0.00
2023-05-20T01:14:07.000Z,0.00
2023-05-20T01:14:37.000Z,0.00
2023-05-20T01:15:03.000Z,0.00
2023-05-20T01:15:32.000Z,0.00
2023-05-20T01:16:02.000Z,0.00
2023-05-20T01:16:38.000Z,0.00
2023-05-20T01:16:57.000Z,0.00
2023-05-20T01:17:22.000Z,0.00
2023-05-20T01:17:57.000Z,0.00
2023-05-20T01:18:27.000Z,0.00
2023-05-20T01:19:02.000Z,0.00
2023-05-20T01:19:32.000Z,0.00
2023-05-20T01:20:02.000Z,0.00
2023-05-20T01:20:37.000Z,0.00
2023-05-20T01:21:00.000Z,0.00
2023-05-20T01:21:27.000Z,0.00
2023-05-20T01:21:53.000Z,0.00
2023-05-20T01:22:12.000Z,0.00
2023-05-20T01:22:42.000Z,0.00
2023-05-20T01:23:17.000Z,0.00
2023-05-20T01:23:47.000Z,0.00
2023-05-20T01:24:17.000Z,0.00
2023-05-20T01:24:37.000Z,0.00
2023-05-20T01:24:59.000Z,0.00
2023-05-20T01:25:22.000Z,0.00
2023-05-20T01:25:57.000Z,0.00
2023-05-20T01:26:30.000Z,0.00
2023-05-20T01:27:02.000Z,0.00
2023-05-20T01:27:32.000Z,0.00
2023-05-20T01:28:12.000Z,0.00
2023-05-20T01:28:37.000Z,0.00
2023-05-20T01:28:59.000Z,0.00
2023-05-20T01:29:22.000Z,0.00
2023-05-20T01:29:57.000Z,0.00
2023-05-20T01:30:27.000Z,0.00
2023-05-20T01:31:02.000Z,0.00
2023-05-20T01:31:33.000Z,0.00
2023-05-20T01:32:02.000Z,0.00
2023-05-20T01:32:37.000Z,0.00
2023-05-20T01:32:58.000Z,0.00
2023-05-20T01:33:22.000Z,0.00
2023-05-20T01:33:57.000Z,0.00
2023-05-20T01:34:27.000Z,0.00
2023-05-20T01:35:12.000Z,0.00
2023-05-20T01:35:34.000Z,0.00
2023-05-20T01:36:02.000Z,0.00
2023-05-20T01:36:33.000Z,0.00
2023-05-20T01:36:52.000Z,0.00
2023-05-20T01:37:22.000Z,0.00
2023-05-20T01:37:57.000Z,0.00
2023-05-20T01:38:27.000Z,0.00
2023-05-20T01:39:02.000Z,0.00
2023-05-20T01:39:32.000Z,0.00
2023-05-20T01:40:02.000Z,0.00
2023-05-20T01:40:37.000Z,0.00
2023-05-20T01:40:58.000Z,0.00
2023-05-20T01:41:22.000Z,0.00
2023-05-20T01:41:57.000Z,0.00
2023-05-20T01:42:37.000Z,0.00
2023-05-20T01:43:03.000Z,0.00
2023-05-20T01:43:34.000Z,0.00
2023-05-20T01:44:02.000Z,0.00
2023-05-20T01:44:37.000Z,0.00
2023-05-20T01:44:58.000Z,0.00
2023-05-20T01:45:22.000Z,0.00
2023-05-20T01:45:43.000Z,0.00
2023-05-20T01:46:10.000Z,0.00
2023-05-20T01:46:27.000Z,0.00
2023-05-20T01:47:02.000Z,0.00
2023-05-20T01:47:32.000Z,0.00
2023-05-20T01:48:02.000Z,0.00
2023-05-20T01:48:37.000Z,0.00
2023-05-20T01:48:59.000Z,0.00
2023-05-20T01:49:23.000Z,0.00
2023-05-20T01:49:53.000Z,0.00
2023-05-20T01:50:09.000Z,0.00
2023-05-20T01:50:42.000Z,0.00
2023-05-20T01:51:02.000Z,0.00
2023-05-20T01:51:32.000Z,0.00
2023-05-20T01:52:02.000Z,0.00
2023-05-20T01:52:17.000Z,0.00
2023-05-20T01:52:52.000Z,0.00
2023-05-20T01:53:22.000Z,0.00
2023-05-20T01:53:42.000Z,0.00
2023-05-20T01:54:12.000Z,0.00
2023-05-20T01:54:42.000Z,0.00
2023-05-20T01:55:16.000Z,0.00
2023-05-20T01:55:48.000Z,0.00
2023-05-20T01:56:12.000Z,0.00
2023-05-20T01:56:37.000Z,0.00
2023-05-20T01:57:02.000Z,0.00
2023-05-20T01:57:27.000Z,0.00
2023-05-20T01:57:53.000Z,0.00
2023-05-20T01:58:18.000Z,0.00
2023-05-20T01:58:43.000Z,0.00
2023-05-20T01:59:12.000Z,0.00
2023-05-20T01:59:35.000Z,0.00
2023-05-20T02:00:02.000Z,0.00
2023-05-20T02:00:27.000Z,0.00
2023-05-20T02:00:53.000Z,0.00
2023-05-20T02:01:27.000Z,0.00
2023-05-20T02:01:53.000Z,0.00
2023-05-20T02:02:10.000Z,0.00
2023-05-20T02:02:27.000Z,0.00
2023-05-20T02:03:02.000Z,0.00
2023-05-20T02:03:32.000Z,0.00
2023-05-20T02:04:02.000Z,0.00
2023-05-20T02:04:37.000Z,0.00
2023-05-20T02:04:59.000Z,0.00
2023-05-20T02:05:22.000Z,0.00
2023-05-20T02:05:57.000Z,0.00
2023-05-20T02:06:27.000Z,0.00
2023-05-20T02:07:02.000Z,0.00
2023-05-20T02:07:29.000Z,0.00
2023-05-20T02:07:57.000Z,0.00
2023-05-20T02:08:23.000Z,0.00
2023-05-20T02:08:49.000Z,0.00
2023-05-20T02:09:17.000Z,0.00
2023-05-20T02:09:42.000Z,0.00
2023-05-20T02:10:10.000Z,0.00
2023-05-20T02:10:42.000Z,0.00
2023-05-20T02:11:17.000Z,0.00
2023-05-20T02:11:47.000Z,0.00
2023-05-20T02:12:17.000Z,0.00
2023-05-20T02:12:37.000Z,0.00
2023-05-20T02:12:59.000Z,0.00
2023-05-20T02:13:22.000Z,0.00
2023-05-20T02:13:57.000Z,0.00
2023-05-20T02:14:27.000Z,0.00
2023-05-20T02:15:12.000Z,0.00
2023-05-20T02:15:34.000Z,0.00
2023-05-20T02:16:03.000Z,0.00
2023-05-20T02:16:37.000Z,0.00
2023-05-20T02:16:59.000Z,0.00
2023-05-20T02:17:22.000Z,0.00
2023-05-20T02:17:57.000Z,0.00
2023-05-20T02:18:27.000Z,0.00
2023-05-20T02:19:02.000Z,0.00
2023-05-20T02:19:32.000Z,0.00
2023-05-20T02:20:02.000Z,0.00
2023-05-20T02:20:37.000Z,0.00
2023-05-20T02:20:59.000Z,0.00
2023-05-20T02:21:22.000Z,0.00
2023-05-20T02:21:57.000Z,0.00
2023-05-20T02:22:37.000Z,0.00
2023-05-20T02:23:02.000Z,0.00
2023-05-20T02:23:33.000Z,0.00
2023-05-20T02:24:02.000Z,0.00
2023-05-20T02:24:37.000Z,0.00
2023-05-20T02:24:58.000Z,0.00
2023-05-20T02:25:22.000Z,0.00
2023-05-20T02:25:57.000Z,0.00
2023-05-20T02:26:27.000Z,0.00
2023-05-20T02:27:02.000Z,0.00
2023-05-20T02:27:32.000Z,0.00
2023-05-20T02:28:12.000Z,0.00
2023-05-20T02:28:38.000Z,0.00
2023-05-20T02:29:02.000Z,0.00
2023-05-20T02:29:25.000Z,0.00
2023-05-20T02:29:53.000Z,0.00
2023-05-20T02:30:09.000Z,0.00
2023-05-20T02:30:42.000Z,0.00
2023-05-20T02:31:03.000Z,0.00
2023-05-20T02:31:32.000Z,0.00
2023-05-20T02:32:02.000Z,0.00
2023-05-20T02:32:17.000Z,0.00
2023-05-20T02:32:37.000Z,0.00
2023-05-20T02:32:59.000Z,0.00
2023-05-20T02:33:22.000Z,0.00
2023-05-20T02:33:57.000Z,0.00
2023-05-20T02:34:27.000Z,0.00
2023-05-20T02:35:02.000Z,0.00
2023-05-20T02:35:33.000Z,0.00
2023-05-20T02:35:57.000Z,0.00
2023-05-20T02:36:23.000Z,0.00
2023-05-20T02:36:49.000Z,0.00
2023-05-20T02:37:27.000Z,0.00
2023-05-20T02:37:57.000Z,0.00
2023-05-20T02:38:27.000Z,0.00
2023-05-20T02:39:02.000Z,0.00
2023-05-20T02:39:32.000Z,0.00
2023-05-20T02:40:03.000Z,0.00
2023-05-20T02:40:37.000Z,0.00
2023-05-20T02:40:59.000Z,0.00
2023-05-20T02:41:22.000Z,0.00
2023-05-20T02:41:42.000Z,0.00
2023-05-20T02:42:12.000Z,0.00
2023-05-20T02:42:42.000Z,0.00
2023-05-20T02:43:17.000Z,0.00
2023-05-20T02:43:57.000Z,0.00
2023-05-20T02:44:23.000Z,0.00
2023-05-20T02:44:49.000Z,0.00
2023-05-20T02:45:17.000Z,0.00
2023-05-20T02:45:43.000Z,0.00
2023-05-20T02:46:07.000Z,0.00
2023-05-20T02:46:30.000Z,0.00
2023-05-20T02:46:57.000Z,0.00
2023-05-20T02:47:13.000Z,0.00
2023-05-20T02:47:32.000Z,0.00
2023-05-20T02:47:57.000Z,0.00
2023-05-20T02:48:23.000Z,0.00
2023-05-20T02:48:49.000Z,0.00
2023-05-20T02:49:07.000Z,0.00
2023-05-20T02:49:42.000Z,0.00
2023-05-20T02:50:12.000Z,0.00
2023-05-20T02:50:42.000Z,0.00
2023-05-20T02:51:17.000Z,0.00
2023-05-20T02:51:47.000Z,0.00
2023-05-20T02:52:17.000Z,0.00
2023-05-20T02:52:37.000Z,0.00
2023-05-20T02:52:58.000Z,0.00
2023-05-20T02:53:23.000Z,0.00
2023-05-20T02:53:57.000Z,0.00
2023-05-20T02:54:27.000Z,0.00
2023-05-20T02:55:12.000Z,0.00
2023-05-20T02:55:34.000Z,0.00
2023-05-20T02:56:02.000Z,0.00
2023-05-20T02:56:37.000Z,0.00
2023-05-20T02:56:59.000Z,0.00
2023-05-20T02:57:22.000Z,0.00
2023-05-20T02:57:57.000Z,0.00
2023-05-20T02:58:27.000Z,0.00
2023-05-20T02:59:02.000Z,0.00
2023-05-20T02:59:32.000Z,0.00
2023-05-20T03:00:02.000Z,0.00
2023-05-20T03:00:37.000Z,0.00
2023-05-20T03:00:59.000Z,0.00
2023-05-20T03:01:22.000Z,0.00
2023-05-20T03:01:57.000Z,0.00
2023-05-20T03:02:25.000Z,0.00
2023-05-20T03:02:52.000Z,0.00
2023-05-20T03:03:26.000Z,0.00
2023-05-20T03:03:47.000Z,0.00
2023-05-20T03:04:03.000Z,0.00
2023-05-20T03:04:37.000Z,0.00
2023-05-20T03:04:58.000Z,0.00
2023-05-20T03:05:22.000Z,0.00
2023-05-20T03:05:57.000Z,0.00
2023-05-20T03:06:27.000Z,0.00
2023-05-20T03:07:02.000Z,0.00
2023-05-20T03:07:32.000Z,0.00
2023-05-20T03:08:02.000Z,0.00
2023-05-20T03:08:37.000Z,0.00
2023-05-20T03:08:58.000Z,0.00
2023-05-20T03:09:27.000Z,0.00
2023-05-20T03:10:07.000Z,0.00
2023-05-20T03:10:47.000Z,0.00
2023-05-20T03:11:18.000Z,0.00
2023-05-20T03:11:45.000Z,0.00
2023-05-20T03:12:02.000Z,0.00
2023-05-20T03:12:37.000Z,0.00
2023-05-20T03:13:00.000Z,0.00
2023-05-20T03:13:27.000Z,0.00
2023-05-20T03:14:07.000Z,0.00
2023-05-20T03:14:29.000Z,0.00
2023-05-20T03:14:57.000Z,0.00
2023-05-20T03:15:32.000Z,0.00
2023-05-20T03:15:57.000Z,0.00
2023-05-20T03:16:23.000Z,0.00
2023-05-20T03:16:49.000Z,0.00
2023-05-20T03:17:17.000Z,0.00
2023-05-20T03:17:42.000Z,0.00
2023-05-20T03:18:10.000Z,0.00
2023-05-20T03:18:42.000Z,0.00
2023-05-20T03:19:16.000Z,0.00
2023-05-20T03:19:47.000Z,0.00
2023-05-20T03:20:22.000Z,0.00
2023-05-20T03:20:52.000Z,0.00
2023-05-20T03:21:22.000Z,0.00
2023-05-20T03:21:57.000Z,0.00
2023-05-20T03:22:27.000Z,0.00
2023-05-20T03:23:02.000Z,0.00
2023-05-20T03:23:32.000Z,0.00
2023-05-20T03:23:57.000Z,0.00
2023-05-20T03:24:23.000Z,0.00
2023-05-20T03:24:49.000Z,0.00
2023-05-20T03:25:22.000Z,0.00
2023-05-20T03:25:57.000Z,0.00
2023-05-20T03:26:27.000Z,0.00
2023-05-20T03:27:03.000Z,0.00
2023-05-20T03:27:34.000Z,0.00
2023-05-20T03:28:02.000Z,0.36
2023-05-20T03:28:37.000Z,0.36
2023-05-20T03:28:59.000Z,0.00
2023-05-20T03:29:22.000Z,0.85
2023-05-20T03:29:57.000Z,0.85
2023-05-20T03:30:27.000Z,1.22
2023-05-20T03:31:12.000Z,1.22
2023-05-20T03:31:32.000Z,1.22
2023-05-20T03:32:02.000Z,1.22
2023-05-20T03:32:38.000Z,1.22
2023-05-20T03:33:12.000Z,2.08
2023-05-20T03:33:42.000Z,1.71
2023-05-20T03:33:57.000Z,2.08
2023-05-20T03:34:27.000Z,1.71
2023-05-20T03:35:02.000Z,1.71
2023-05-20T03:35:32.000Z,1.71
2023-05-20T03:36:02.000Z,2.08
2023-05-20T03:36:17.000Z,2.94
2023-05-20T03:36:37.000Z,2.94
2023-05-20T03:37:02.000Z,2.57
2023-05-20T03:37:28.000Z,3.43
2023-05-20T03:37:53.000Z,3.43
2023-05-20T03:38:18.000Z,3.43
2023-05-20T03:38:43.000Z,3.43
2023-05-20T03:39:12.000Z,3.43
2023-05-20T03:39:42.000Z,3.79
2023-05-20T03:40:12.000Z,3.79
2023-05-20T03:40:37.000Z,4.77
2023-05-20T03:41:02.000Z,3.79
2023-05-20T03:41:24.000Z,4.77
2023-05-20T03:41:53.000Z,5.63
2023-05-20T03:42:18.000Z,4.77
2023-05-20T03:42:43.000Z,5.63
2023-05-20T03:43:12.000Z,5.63
2023-05-20T03:43:34.000Z,5.63
2023-05-20T03:44:02.000Z,5.99
2023-05-20T03:44:27.000Z,5.99
2023-05-20T03:44:53.000Z,6.48
2023-05-20T03:45:22.000Z,6.85
2023-05-20T03:45:57.000Z,6.48
2023-05-20T03:46:27.000Z,8.19
2023-05-20T03:47:02.000Z,7.70
2023-05-20T03:47:32.000Z,8.19
2023-05-20T03:48:02.000Z,8.19
2023-05-20T03:48:37.000Z,8.19
2023-05-20T03:48:59.000Z,9.54
2023-05-20T03:49:22.000Z,9.54
2023-05-20T03:49:57.000Z,10.39
2023-05-20T03:50:37.000Z,11.62
2023-05-20T03:51:03.000Z,10.77
2023-05-20T03:51:32.000Z,11.25
2023-05-20T03:52:02.000Z,11.62
2023-05-20T03:52:37.000Z,12.11
2023-05-20T03:52:58.000Z,13.33
2023-05-20T03:53:22.000Z,13.33
2023-05-20T03:53:57.000Z,13.82
2023-05-20T03:54:27.000Z,13.33
2023-05-20T03:55:02.000Z,15.17
2023-05-20T03:55:32.000Z,15.53
2023-05-20T03:56:02.000Z,15.17
2023-05-20T03:56:37.000Z,16.39
2023-05-20T03:57:00.000Z,16.02
2023-05-20T03:57:27.000Z,16.39
2023-05-20T03:58:07.000Z,16.88
2023-05-20T03:58:29.000Z,17.73
2023-05-20T03:58:57.000Z,18.11
2023-05-20T03:59:13.000Z,18.11
2023-05-20T03:59:32.000Z,18.11
2023-05-20T03:59:57.000Z,19.08
2023-05-20T04:00:23.000Z,19.08
2023-05-20T04:00:49.000Z,20.80
2023-05-20T04:01:17.000Z,19.94
2023-05-20T04:01:43.000Z,20.80
2023-05-20T04:02:07.000Z,20.80
2023-05-20T04:02:30.000Z,21.65
2023-05-20T04:02:57.000Z,22.51
2023-05-20T04:03:13.000Z,22.02
2023-05-20T04:03:32.000Z,22.51
2023-05-20T04:04:02.000Z,22.87
2023-05-20T04:04:37.000Z,23.36
2023-05-20T04:04:59.000Z,23.36
2023-05-20T04:05:22.000Z,24.71
2023-05-20T04:05:57.000Z,24.71
2023-05-20T04:06:27.000Z,25.07
2023-05-20T04:07:02.000Z,25.07
2023-05-20T04:07:32.000Z,27.28
2023-05-20T04:08:02.000Z,26.79
2023-05-20T04:08:37.000Z,27.28
2023-05-20T04:08:59.000Z,27.28
2023-05-20T04:09:27.000Z,28.63
2023-05-20T04:09:53.000Z,28.99
2023-05-20T04:10:12.000Z,28.63
2023-05-20T04:10:47.000Z,28.99
2023-05-20T04:11:18.000Z,29.85
2023-05-20T04:11:45.000Z,29.85
2023-05-20T04:12:19.000Z,30.70
2023-05-20T04:13:02.000Z,31.56
2023-05-20T04:13:24.000Z,31.56
2023-05-20T04:13:57.000Z,32.05
2023-05-20T04:14:27.000Z,33.76
2023-05-20T04:15:02.000Z,33.39
2023-05-20T04:15:32.000Z,33.76
2023-05-20T04:16:02.000Z,34.62
2023-05-20T04:16:37.000Z,35.11
2023-05-20T04:16:59.000Z,35.11
2023-05-20T04:17:22.000Z,36.33
2023-05-20T04:17:57.000Z,36.82
2023-05-20T04:18:27.000Z,36.82
2023-05-20T04:19:12.000Z,37.19
2023-05-20T04:19:34.000Z,38.17
2023-05-20T04:20:02.000Z,38.53
2023-05-20T04:20:37.000Z,39.02
2023-05-20T04:21:00.000Z,39.88
2023-05-20T04:21:22.000Z,40.73
2023-05-20T04:21:57.000Z,41.10
2023-05-20T04:22:27.000Z,41.96
2023-05-20T04:23:02.000Z,41.96
2023-05-20T04:23:32.000Z,42.94
2023-05-20T04:24:02.000Z,42.45
2023-05-20T04:24:37.000Z,44.16
2023-05-20T04:24:59.000Z,44.65
2023-05-20T04:25:23.000Z,44.65
2023-05-20T04:25:57.000Z,45.87
2023-05-20T04:26:27.000Z,45.87
2023-05-20T04:27:02.000Z,46.73
2023-05-20T04:27:36.000Z,46.36
2023-05-20T04:28:02.000Z,46.36
2023-05-20T04:28:37.000Z,47.71
2023-05-20T04:28:59.000Z,48.07
2023-05-20T04:29:22.000Z,48.07
2023-05-20T04:29:57.000Z,48.93
2023-05-20T04:30:27.000Z,49.42
2023-05-20T04:31:02.000Z,49.79
2023-05-20T04:31:32.000Z,50.28
2023-05-20T04:32:02.000Z,50.65
2023-05-20T04:32:37.000Z,51.14
2023-05-20T04:32:59.000Z,51.14
2023-05-20T04:33:23.000Z,51.50
2023-05-20T04:33:53.000Z,52.85
2023-05-20T04:34:09.000Z,52.85
2023-05-20T04:34:42.000Z,54.19
2023-05-20T04:35:17.000Z,56.27
2023-05-20T04:35:47.000Z,56.76
2023-05-20T04:36:17.000Z,56.76
2023-05-20T04:36:37.000Z,57.25
2023-05-20T04:36:59.000Z,58.11
2023-05-20T04:37:22.000Z,58.97
2023-05-20T04:37:57.000Z,59.33
2023-05-20T04:38:27.000Z,58.97
2023-05-20T04:39:02.000Z,59.82
2023-05-20T04:39:36.000Z,59.33
2023-05-20T04:40:02.000Z,61.17
2023-05-20T04:40:37.000Z,61.17
2023-05-20T04:40:59.000Z,61.53
2023-05-20T04:41:22.000Z,62.39
2023-05-20T04:41:57.000Z,62.39
2023-05-20T04:42:27.000Z,62.39
2023-05-20T04:43:02.000Z,62.88
2023-05-20T04:43:32.000Z,63.24
2023-05-20T04:44:02.000Z,63.24
2023-05-20T04:44:37.000Z,64.10
2023-05-20T04:44:58.000Z,64.96
2023-05-20T04:45:22.000Z,64.59
2023-05-20T04:46:07.000Z,63.73
2023-05-20T04:46:27.000Z,64.96
2023-05-20T04:47:02.000Z,65.45
2023-05-20T04:47:32.000Z,65.45
2023-05-20T04:48:02.000Z,65.94
2023-05-20T04:48:38.000Z,65.94
2023-05-20T04:48:59.000Z,65.94
2023-05-20T04:49:22.000Z,66.31
2023-05-20T04:49:57.000Z,66.80
2023-05-20T04:50:27.000Z,66.80
2023-05-20T04:51:02.000Z,67.16
2023-05-20T04:51:32.000Z,67.16
2023-05-20T04:52:03.000Z,67.16
2023-05-20T04:52:37.000Z,67.16
2023-05-20T04:53:00.000Z,67.16
2023-05-20T04:53:27.000Z,67.65
2023-05-20T04:54:07.000Z,68.02
2023-05-20T04:54:42.000Z,67.65
2023-05-20T04:55:17.000Z,68.02
2023-05-20T04:55:47.000Z,68.87
2023-05-20T04:56:17.000Z,68.87
2023-05-20T04:56:37.000Z,68.51
2023-05-20T04:56:59.000Z,68.51
2023-05-20T04:57:22.000Z,68.87
2023-05-20T04:57:42.000Z,68.87
2023-05-20T04:58:03.000Z,68.87
2023-05-20T04:58:27.000Z,69.36
2023-05-20T04:59:02.000Z,69.73
2023-05-20T04:59:42.000Z,71.07
2023-05-20T05:00:12.000Z,70.22
2023-05-20T05:00:37.000Z,71.07
2023-05-20T05:01:02.000Z,71.93
2023-05-20T05:01:27.000Z,72.79
2023-05-20T05:01:57.000Z,74.14
2023-05-20T05:02:27.000Z,74.99
2023-05-20T05:03:02.000Z,76.70
2023-05-20T05:03:32.000Z,79.76
2023-05-20T05:04:02.000Z,81.10
2023-05-20T05:04:33.000Z,82.82
2023-05-20T05:04:52.000Z,82.82
2023-05-20T05:05:22.000Z,84.53
2023-05-20T05:05:57.000Z,85.39
2023-05-20T05:06:27.000Z,85.88
2023-05-20T05:07:12.000Z,85.02
2023-05-20T05:07:34.000Z,85.88
2023-05-20T05:08:02.000Z,85.02
2023-05-20T05:08:37.000Z,82.82
2023-05-20T05:09:00.000Z,82.82
2023-05-20T05:09:22.000Z,84.04
2023-05-20T05:09:57.000Z,85.88
2023-05-20T05:10:27.000Z,86.24
2023-05-20T05:11:02.000Z,87.10
2023-05-20T05:11:35.000Z,89.31
2023-05-20T05:12:02.000Z,90.16
2023-05-20T05:12:33.000Z,92.36
2023-05-20T05:12:52.000Z,93.22
2023-05-20T05:13:22.000Z,95.42
2023-05-20T05:13:57.000Z,97.50
2023-05-20T05:14:27.000Z,98.36
2023-05-20T05:15:02.000Z,96.27
2023-05-20T05:15:29.000Z,90.16
2023-05-20T05:15:57.000Z,94.07
2023-05-20T05:16:23.000Z,97.50
2023-05-20T05:16:49.000Z,96.65
2023-05-20T05:17:17.000Z,94.56
2023-05-20T05:17:43.000Z,94.56
2023-05-20T05:18:07.000Z,95.42
2023-05-20T05:18:42.000Z,95.79
2023-05-20T05:19:17.000Z,95.79
2023-05-20T05:19:47.000Z,96.65
2023-05-20T05:20:17.000Z,97.13
2023-05-20T05:20:37.000Z,97.13
2023-05-20T05:20:58.000Z,97.99
2023-05-20T05:21:22.000Z,99.70
2023-05-20T05:21:57.000Z,103.61
2023-05-20T05:22:27.000Z,109.24
2023-05-20T05:23:02.000Z,111.44
2023-05-20T05:23:32.000Z,113.65
2023-05-20T05:24:03.000Z,112.67
2023-05-20T05:24:37.000Z,116.58
2023-05-20T05:24:59.000Z,117.44
2023-05-20T05:25:22.000Z,121.36
2023-05-20T05:25:57.000Z,124.41
2023-05-20T05:26:27.000Z,124.90
2023-05-20T05:27:02.000Z,126.61
2023-05-20T05:27:32.000Z,129.19
2023-05-20T05:28:02.000Z,130.53
2023-05-20T05:28:37.000Z,134.44
2023-05-20T05:28:59.000Z,135.30
2023-05-20T05:29:22.000Z,137.51
2023-05-20T05:29:57.000Z,138.73
2023-05-20T05:30:37.000Z,139.58
2023-05-20T05:31:03.000Z,140.93
2023-05-20T05:31:34.000Z,141.42
2023-05-20T05:32:02.000Z,141.78
2023-05-20T05:32:37.000Z,141.42
2023-05-20T05:32:59.000Z,141.78
2023-05-20T05:33:22.000Z,141.42
2023-05-20T05:33:57.000Z,139.22
2023-05-20T05:34:27.000Z,138.73
2023-05-20T05:35:02.000Z,137.02
2023-05-20T05:35:32.000Z,134.44
2023-05-20T05:36:02.000Z,133.59
2023-05-20T05:36:37.000Z,133.95
2023-05-20T05:36:58.000Z,133.10
2023-05-20T05:37:27.000Z,135.30
2023-05-20T05:37:57.000Z,133.95
2023-05-20T05:38:27.000Z,130.53
2023-05-20T05:39:02.000Z,132.24
2023-05-20T05:39:32.000Z,140.93
2023-05-20T05:40:02.000Z,144.85
2023-05-20T05:40:37.000Z,149.98
2023-05-20T05:40:59.000Z,151.33
2023-05-20T05:41:22.000Z,152.68
2023-05-20T05:41:57.000Z,153.04
2023-05-20T05:42:27.000Z,153.04
2023-05-20T05:43:02.000Z,151.82
2023-05-20T05:43:32.000Z,149.98
2023-05-20T05:43:57.000Z,149.12
2023-05-20T05:44:23.000Z,150.47
2023-05-20T05:44:49.000Z,149.98
2023-05-20T05:45:17.000Z,150.96
2023-05-20T05:45:44.000Z,147.05
2023-05-20T05:46:07.000Z,143.99
2023-05-20T05:46:30.000Z,96.27
2023-05-20T05:46:57.000Z,90.16
2023-05-20T05:47:17.000Z,90.16
2023-05-20T05:47:47.000Z,94.93
2023-05-20T05:48:17.000Z,103.61
2023-05-20T05:48:37.000Z,110.96
2023-05-20T05:48:59.000Z,140.07
2023-05-20T05:49:22.000Z,126.61
2023-05-20T05:49:57.000Z,109.24
2023-05-20T05:50:27.000Z,104.10
2023-05-20T05:51:02.000Z,107.04
2023-05-20T05:51:32.000Z,110.96
2023-05-20T05:52:02.000Z,113.16
2023-05-20T05:52:37.000Z,153.04
2023-05-20T05:52:59.000Z,129.19
2023-05-20T05:53:22.000Z,121.85
2023-05-20T05:53:57.000Z,114.02
2023-05-20T05:54:27.000Z,119.27
2023-05-20T05:55:02.000Z,120.13
2023-05-20T05:55:32.000Z,124.90
2023-05-20T05:56:02.000Z,129.19
2023-05-20T05:56:38.000Z,138.36
2023-05-20T05:56:59.000Z,127.96
2023-05-20T05:57:22.000Z,127.47
2023-05-20T05:57:57.000Z,130.04
2023-05-20T05:58:37.000Z,135.67
2023-05-20T05:59:02.000Z,149.98
2023-05-20T05:59:32.000Z,144.36
2023-05-20T06:00:02.000Z,140.93
2023-05-20T06:00:33.000Z,128.33
2023-05-20T06:00:52.000Z,126.61
2023-05-20T06:01:22.000Z,127.10
2023-05-20T06:01:42.000Z,126.61
2023-05-20T06:02:12.000Z,124.41
2023-05-20T06:02:42.000Z,124.05
2023-05-20T06:03:02.000Z,123.56
2023-05-20T06:03:32.000Z,127.47
2023-05-20T06:04:02.000Z,120.13
2023-05-20T06:04:47.000Z,118.78
2023-05-20T06:05:17.000Z,120.50
2023-05-20T06:05:43.000Z,160.87
2023-05-20T06:06:12.000Z,156.59
2023-05-20T06:06:42.000Z,127.10
2023-05-20T06:07:17.000Z,122.70
2023-05-20T06:07:47.000Z,121.36
2023-05-20T06:08:17.000Z,120.50
2023-05-20T06:08:52.000Z,123.56
2023-05-20T06:09:22.000Z,124.41
2023-05-20T06:09:57.000Z,124.05
2023-05-20T06:10:27.000Z,123.19
2023-05-20T06:11:02.000Z,121.36
2023-05-20T06:11:33.000Z,120.99
2023-05-20T06:11:57.000Z,120.50
2023-05-20T06:12:23.000Z,117.44
2023-05-20T06:12:49.000Z,114.02
2023-05-20T06:13:17.000Z,111.82
2023-05-20T06:13:43.000Z,108.39
2023-05-20T06:14:07.000Z,106.19
2023-05-20T06:14:37.000Z,102.76
2023-05-20T06:15:02.000Z,101.05